createdAt,value
2022-12-28T00:01:33.527Z,2.88
2022-12-28T00:04:01.921Z,3.10
2022-12-28T00:06:28.897Z,2.75
2022-12-28T00:08:56.782Z,3.13
2022-12-28T00:11:28.171Z,3.50
2022-12-28T00:13:59.953Z,3.00
2022-12-28T00:16:32.136Z,3.10
2022-12-28T00:19:00.941Z,3.72
2022-12-28T00:23:58.177Z,3.15
2022-12-28T00:26:26.217Z,2.38
2022-12-28T00:28:55.593Z,2.73
2022-12-28T00:31:26.439Z,2.90
2022-12-28T00:33:53.385Z,3.10
2022-12-28T00:36:19.743Z,3.30
2022-12-28T00:38:46.400Z,2.33
2022-12-28T00:41:12.766Z,2.72
2022-12-28T00:43:39.169Z,2.53
2022-12-28T00:46:05.890Z,2.72
2022-12-28T00:48:32.555Z,3.00
2022-12-28T00:51:06.995Z,3.08
2022-12-28T00:53:33.545Z,2.42
2022-12-28T00:56:15.761Z,2.45
2022-12-28T00:58:42.548Z,2.80
2022-12-28T01:01:22.099Z,2.70
2022-12-28T01:03:48.827Z,2.72
2022-12-28T01:06:18.275Z,2.85
2022-12-28T01:08:44.804Z,2.50
2022-12-28T01:11:18.334Z,2.55
2022-12-28T01:13:45.323Z,3.20
2022-12-28T01:16:17.585Z,2.70
2022-12-28T01:18:45.398Z,2.83
2022-12-28T01:21:17.755Z,2.88
2022-12-28T01:23:45.520Z,2.63
2022-12-28T01:26:12.336Z,3.22
2022-12-28T01:28:39.160Z,3.45
2022-12-28T01:31:17.399Z,2.92
2022-12-28T01:33:44.966Z,3.30
2022-12-28T01:36:15.749Z,3.10
2022-12-28T01:38:43.195Z,3.50
2022-12-28T01:41:11.868Z,3.22
2022-12-28T01:43:46.034Z,3.53
2022-12-28T01:46:16.395Z,3.17
2022-12-28T01:48:49.819Z,3.53
2022-12-28T01:51:18.125Z,3.20
2022-12-28T01:53:44.511Z,3.33
2022-12-28T01:56:11.258Z,3.00
2022-12-28T01:58:37.677Z,3.45
2022-12-28T02:01:04.946Z,3.38
2022-12-28T02:03:32.948Z,3.17
2022-12-28T02:06:02.084Z,3.42
2022-12-28T02:08:47.997Z,2.97
2022-12-28T02:11:18.420Z,3.33
2022-12-28T02:13:47.359Z,3.55
2022-12-28T02:16:14.196Z,3.15
2022-12-28T02:18:43.728Z,2.83
2022-12-28T02:21:25.482Z,3.35
2022-12-28T02:24:20.976Z,3.15
2022-12-28T02:26:55.105Z,2.97
2022-12-28T02:29:37.556Z,3.33
2022-12-28T02:32:17.383Z,3.08
2022-12-28T02:34:53.037Z,3.45
2022-12-28T02:37:24.438Z,3.20
2022-12-28T02:39:56.982Z,3.67
2022-12-28T02:42:25.539Z,3.83
2022-12-28T02:45:10.553Z,3.40
2022-12-28T02:47:59.184Z,2.70
2022-12-28T02:50:36.730Z,2.67
2022-12-28T02:53:22.064Z,3.10
2022-12-28T02:56:14.358Z,2.95
2022-12-28T02:58:55.924Z,3.33
2022-12-28T03:01:30.205Z,3.33
2022-12-28T03:04:11.179Z,3.80
2022-12-28T03:07:30.506Z,3.70
2022-12-28T03:10:09.006Z,3.70
2022-12-28T03:12:56.420Z,3.22
2022-12-28T03:15:30.735Z,3.20
2022-12-28T03:18:34.663Z,3.95
2022-12-28T03:21:28.726Z,4.65
2022-12-28T03:24:15.011Z,3.15
2022-12-28T03:27:12.560Z,4.43
2022-12-28T03:30:02.942Z,3.67
2022-12-28T03:32:29.917Z,4.13
2022-12-28T03:34:56.668Z,3.65
2022-12-28T03:37:43.422Z,4.20
2022-12-28T03:40:19.567Z,4.10
2022-12-28T03:43:08.501Z,4.75
2022-12-28T03:45:47.495Z,3.50
2022-12-28T03:48:16.272Z,3.13
2022-12-28T03:50:46.025Z,3.88
2022-12-28T03:53:12.712Z,4.40
2022-12-28T03:55:47.512Z,4.35
2022-12-28T03:58:13.894Z,3.92
2022-12-28T04:00:40.303Z,4.47
2022-12-28T04:03:06.742Z,4.70
2022-12-28T04:05:33.123Z,4.88
2022-12-28T04:07:59.535Z,4.07
2022-12-28T04:10:26.002Z,4.80
2022-12-28T04:12:56.683Z,4.32
2022-12-28T04:15:23.273Z,4.75
2022-12-28T04:17:49.715Z,4.82
2022-12-28T04:20:16.090Z,4.57
2022-12-28T04:22:42.397Z,4.97
2022-12-28T04:25:09.076Z,4.80
2022-12-28T04:27:35.529Z,4.70
2022-12-28T04:30:02.005Z,5.18
2022-12-28T04:32:28.954Z,3.97
2022-12-28T04:34:55.273Z,4.40
2022-12-28T04:37:21.636Z,4.60
2022-12-28T04:39:54.841Z,4.50
2022-12-28T04:42:26.797Z,4.65
2022-12-28T04:44:53.349Z,5.40
2022-12-28T04:47:19.763Z,4.55
2022-12-28T04:49:46.286Z,4.50
2022-12-28T04:52:12.916Z,4.70
2022-12-28T04:54:39.314Z,3.95
2022-12-28T04:57:06.646Z,5.47
2022-12-28T04:59:33.067Z,4.43
2022-12-28T05:01:59.542Z,5.63
2022-12-28T05:04:26.055Z,4.30
2022-12-28T05:06:52.436Z,7.05
2022-12-28T05:09:19.421Z,5.22
2022-12-28T05:11:46.875Z,5.63
2022-12-28T05:14:13.340Z,7.20
2022-12-28T05:16:39.857Z,5.07
2022-12-28T05:19:06.298Z,4.20
2022-12-28T05:21:32.806Z,5.85
2022-12-28T05:23:59.240Z,5.53
2022-12-28T05:26:28.623Z,6.25
2022-12-28T05:28:58.759Z,5.25
2022-12-28T05:31:25.999Z,5.45
2022-12-28T05:33:54.376Z,5.43
2022-12-28T05:36:23.893Z,4.78
2022-12-28T05:38:51.002Z,5.22
2022-12-28T05:41:22.882Z,4.50
2022-12-28T05:43:50.128Z,5.55
2022-12-28T05:46:20.052Z,5.40
2022-12-28T05:48:47.639Z,5.30
2022-12-28T05:51:17.487Z,5.10
2022-12-28T05:53:44.607Z,5.65
2022-12-28T05:56:16.043Z,4.85
2022-12-28T05:58:44.078Z,4.05
2022-12-28T06:01:19.655Z,4.55
2022-12-28T06:03:47.626Z,4.47
2022-12-28T06:06:16.964Z,4.35
2022-12-28T06:08:44.703Z,4.55
2022-12-28T06:11:14.238Z,4.18
2022-12-28T06:13:41.508Z,4.50
2022-12-28T06:16:10.660Z,4.18
2022-12-28T06:18:37.509Z,4.53
2022-12-28T06:21:11.072Z,4.20
2022-12-28T06:23:37.717Z,4.90
2022-12-28T06:26:06.897Z,3.83
2022-12-28T06:28:33.678Z,4.28
2022-12-28T06:31:06.194Z,4.05
2022-12-28T06:33:33.607Z,4.07
2022-12-28T06:36:00.263Z,4.13
2022-12-28T06:38:32.603Z,3.97
2022-12-28T06:41:19.638Z,3.65
2022-12-28T06:43:47.043Z,3.95
2022-12-28T06:46:14.762Z,4.20
2022-12-28T06:48:42.101Z,3.30
2022-12-28T06:51:13.284Z,3.47
2022-12-28T06:53:39.910Z,3.38
2022-12-28T06:56:18.329Z,3.67
2022-12-28T06:58:45.787Z,3.33
2022-12-28T07:01:17.217Z,2.92
2022-12-28T07:03:45.343Z,3.40
2022-12-28T07:06:13.584Z,2.92
2022-12-28T07:08:40.224Z,3.33
2022-12-28T07:11:12.621Z,3.10
2022-12-28T07:13:39.411Z,2.67
2022-12-28T07:16:14.332Z,2.92
2022-12-28T07:18:42.001Z,3.38
2022-12-28T07:21:11.536Z,3.60
2022-12-28T07:23:38.342Z,2.42
2022-12-28T07:26:13.398Z,3.95
2022-12-28T07:28:42.139Z,3.60
2022-12-28T07:33:37.672Z,3.10
2022-12-28T07:36:06.039Z,3.17
2022-12-28T07:38:33.515Z,3.08
2022-12-28T07:41:06.194Z,2.40
2022-12-28T07:43:33.082Z,3.15
2022-12-28T07:46:01.228Z,3.10
2022-12-28T07:48:30.299Z,3.03
2022-12-28T07:50:56.935Z,3.25
2022-12-28T07:53:23.432Z,3.50
2022-12-28T07:55:59.555Z,2.97
2022-12-28T07:58:26.391Z,2.88
2022-12-28T08:00:53.477Z,3.33
2022-12-28T08:03:20.663Z,2.85
2022-12-28T08:05:47.000Z,3.22
2022-12-28T08:08:13.373Z,3.22
2022-12-28T08:10:40.067Z,3.28
2022-12-28T08:13:06.741Z,3.15
2022-12-28T08:15:33.183Z,3.33
2022-12-28T08:17:59.887Z,4.18
2022-12-28T08:20:26.245Z,3.90
2022-12-28T08:22:53.735Z,4.20
2022-12-28T08:25:20.284Z,3.42
2022-12-28T08:27:46.653Z,4.10
2022-12-28T08:30:13.433Z,3.83
2022-12-28T08:32:39.904Z,3.58
2022-12-28T08:35:06.468Z,3.60
2022-12-28T08:37:33.084Z,3.97
2022-12-28T08:39:59.454Z,3.38
2022-12-28T08:42:25.883Z,3.38
2022-12-28T08:44:52.199Z,3.47
2022-12-28T08:47:18.638Z,3.33
2022-12-28T08:49:44.985Z,3.40
2022-12-28T08:52:11.369Z,3.17
2022-12-28T08:54:37.903Z,3.00
2022-12-28T08:57:04.260Z,2.63
2022-12-28T08:59:30.642Z,3.17
2022-12-28T09:01:57.212Z,3.53
2022-12-28T09:04:23.660Z,2.75
2022-12-28T09:06:50.287Z,3.20
2022-12-28T09:09:19.895Z,3.20
2022-12-28T09:11:46.771Z,3.03
2022-12-28T09:14:22.268Z,2.90
2022-12-28T09:16:50.366Z,3.00
2022-12-28T09:19:16.771Z,2.72
2022-12-28T09:21:45.219Z,3.20
2022-12-28T09:24:13.408Z,3.28
2022-12-28T09:26:40.063Z,3.80
2022-12-28T09:29:08.843Z,3.85
2022-12-28T09:31:37.452Z,3.75
2022-12-28T09:36:53.627Z,4.00
2022-12-28T09:39:23.103Z,3.40
2022-12-28T09:41:57.773Z,3.75
2022-12-28T09:44:39.015Z,3.65
2022-12-28T09:47:08.158Z,3.58
2022-12-28T09:49:44.030Z,4.03
2022-12-28T09:52:35.484Z,3.50
2022-12-28T09:55:12.436Z,3.60
2022-12-28T09:57:43.341Z,3.17
2022-12-28T10:00:17.097Z,3.38
2022-12-28T10:02:49.652Z,3.55
2022-12-28T10:05:16.370Z,2.92
2022-12-28T10:07:43.229Z,3.13
2022-12-28T10:10:16.796Z,3.70
2022-12-28T10:12:44.093Z,2.72
2022-12-28T10:15:14.029Z,3.10
2022-12-28T10:17:41.295Z,2.88
2022-12-28T10:20:15.146Z,2.95
2022-12-28T10:22:49.721Z,3.30
2022-12-28T10:25:22.564Z,3.20
2022-12-28T10:27:49.817Z,3.30
2022-12-28T10:30:26.536Z,3.28
2022-12-28T10:33:03.129Z,2.95
2022-12-28T10:35:37.200Z,3.13
2022-12-28T10:38:07.818Z,2.67
2022-12-28T10:40:38.152Z,3.00
2022-12-28T10:43:10.521Z,3.00
2022-12-28T10:45:42.018Z,2.70
2022-12-28T10:48:14.530Z,2.85
2022-12-28T10:51:11.902Z,2.95
2022-12-28T10:53:42.527Z,2.33
2022-12-28T10:56:11.888Z,2.30
2022-12-28T10:58:41.399Z,2.45
2022-12-28T11:01:13.655Z,2.05
2022-12-28T11:03:44.321Z,1.75
2022-12-28T11:06:26.398Z,2.00
2022-12-28T11:09:13.120Z,1.73
2022-12-28T11:11:40.391Z,1.90
2022-12-28T11:14:29.434Z,1.75
2022-12-28T11:16:56.003Z,1.65
2022-12-28T11:19:23.506Z,1.70
2022-12-28T11:21:51.350Z,1.80
2022-12-28T11:24:19.595Z,1.45
2022-12-28T11:26:49.192Z,1.75
2022-12-28T11:29:17.997Z,1.50
2022-12-28T11:31:55.732Z,1.42
2022-12-28T11:34:27.424Z,0.90
2022-12-28T11:36:54.273Z,1.60
2022-12-28T11:39:26.385Z,1.60
2022-12-28T11:47:16.689Z,1.33
2022-12-28T11:49:47.724Z,1.33
2022-12-28T11:52:17.259Z,1.40
2022-12-28T11:55:21.946Z,1.50
2022-12-28T11:57:48.435Z,1.70
2022-12-28T12:00:23.242Z,1.75
2022-12-28T12:02:53.833Z,1.60
2022-12-28T12:05:35.312Z,1.90
2022-12-28T12:08:02.912Z,1.67
2022-12-28T12:10:34.572Z,1.70
2022-12-28T12:13:22.225Z,1.40
2022-12-28T12:15:51.049Z,1.23
2022-12-28T12:18:24.044Z,1.73
2022-12-28T12:20:52.799Z,1.52
2022-12-28T12:25:54.283Z,1.60
2022-12-28T12:28:34.574Z,1.55
2022-12-28T12:31:04.402Z,1.65
2022-12-28T12:33:35.947Z,2.10
2022-12-28T12:36:22.277Z,2.00
2022-12-28T12:39:10.954Z,1.88
2022-12-28T12:41:46.108Z,2.20
2022-12-28T12:44:15.457Z,1.83
2022-12-28T12:47:10.961Z,1.80
2022-12-28T12:49:58.479Z,1.90
2022-12-28T12:52:43.132Z,2.10
2022-12-28T12:55:19.585Z,1.92
2022-12-28T12:58:09.312Z,2.10
2022-12-28T13:00:49.714Z,1.83
2022-12-28T13:03:43.466Z,2.00
2022-12-28T13:06:21.133Z,2.25
2022-12-28T13:09:04.741Z,1.87
2022-12-28T13:11:36.832Z,2.17
2022-12-28T13:14:03.748Z,1.70
2022-12-28T13:16:32.521Z,2.20
2022-12-28T13:19:05.038Z,2.30
2022-12-28T13:21:46.838Z,2.28
2022-12-28T13:24:38.856Z,2.60
2022-12-28T13:27:18.833Z,2.05
2022-12-28T13:29:52.357Z,2.95
2022-12-28T13:32:34.215Z,2.33
2022-12-28T13:35:20.609Z,2.72
2022-12-28T13:38:08.996Z,2.25
2022-12-28T13:40:38.582Z,2.10
2022-12-28T13:43:25.567Z,2.20
2022-12-28T13:45:57.368Z,2.20
2022-12-28T13:48:25.064Z,2.33
2022-12-28T13:50:53.349Z,2.70
2022-12-28T13:53:24.142Z,2.30
2022-12-28T13:55:54.195Z,2.58
2022-12-28T13:58:28.594Z,2.65
2022-12-28T14:00:58.992Z,2.67
2022-12-28T14:03:26.010Z,2.60
2022-12-28T14:05:57.004Z,2.47
2022-12-28T14:08:23.642Z,2.17
2022-12-28T14:10:51.170Z,2.80
2022-12-28T14:13:18.359Z,2.15
2022-12-28T14:15:45.886Z,2.33
2022-12-28T14:18:19.029Z,2.45
2022-12-28T14:20:50.898Z,2.55
2022-12-28T14:23:28.446Z,2.45
2022-12-28T14:25:57.787Z,1.83
2022-12-28T14:28:40.686Z,1.83
2022-12-28T14:31:10.892Z,2.53
2022-12-28T14:33:50.297Z,2.72
2022-12-28T14:36:26.504Z,2.10
2022-12-28T14:38:59.725Z,1.90
2022-12-28T14:41:38.592Z,1.73
2022-12-28T14:44:14.968Z,2.65
2022-12-28T14:46:42.965Z,1.95
2022-12-28T14:49:28.104Z,1.80
2022-12-28T14:52:17.665Z,2.38
2022-12-28T14:54:46.766Z,1.80
2022-12-28T14:57:30.483Z,2.03
2022-12-28T15:00:02.108Z,2.50
2022-12-28T15:02:40.744Z,2.22
2022-12-28T15:05:38.288Z,2.08
2022-12-28T15:08:05.374Z,2.00
2022-12-28T15:10:36.530Z,1.98
2022-12-28T15:13:03.128Z,1.85
2022-12-28T15:15:29.647Z,2.80
2022-12-28T15:17:56.056Z,1.58
2022-12-28T15:20:22.449Z,2.00
2022-12-28T15:22:49.409Z,1.98
2022-12-28T15:25:16.072Z,2.05
2022-12-28T15:27:42.548Z,1.98
2022-12-28T15:30:13.126Z,1.75
2022-12-28T15:32:41.051Z,1.88
2022-12-28T15:35:07.726Z,2.00
2022-12-28T15:37:34.148Z,1.83
2022-12-28T15:40:00.642Z,2.15
2022-12-28T15:42:27.088Z,1.95
2022-12-28T15:44:54.213Z,1.98
2022-12-28T15:47:20.998Z,1.80
2022-12-28T15:49:47.428Z,1.75
2022-12-28T15:52:13.892Z,2.08
2022-12-28T15:54:45.307Z,1.80
2022-12-28T15:57:15.626Z,1.80
2022-12-28T16:02:11.220Z,1.90
2022-12-28T16:04:37.834Z,2.15
2022-12-28T16:07:04.333Z,1.55
2022-12-28T16:09:30.762Z,2.15
2022-12-28T16:11:57.161Z,2.05
2022-12-28T16:14:23.703Z,1.52
2022-12-28T16:16:50.235Z,2.20
2022-12-28T16:19:16.767Z,2.20
2022-12-28T16:21:43.669Z,2.30
2022-12-28T16:24:10.927Z,2.85
2022-12-28T16:26:37.468Z,2.03
2022-12-28T16:29:04.529Z,2.40
2022-12-28T16:31:33.900Z,2.70
2022-12-28T16:34:02.289Z,1.85
2022-12-28T16:36:29.095Z,2.03
2022-12-28T16:38:55.950Z,2.03
2022-12-28T16:41:22.863Z,2.70
2022-12-28T16:43:50.282Z,2.38
2022-12-28T16:46:18.145Z,1.63
2022-12-28T16:48:44.583Z,2.10
2022-12-28T16:51:12.420Z,2.45
2022-12-28T16:53:39.473Z,1.95
2022-12-28T16:56:06.519Z,1.95
2022-12-28T16:58:33.302Z,2.60
2022-12-28T17:01:08.461Z,2.33
2022-12-28T17:03:36.716Z,2.33
2022-12-28T17:06:03.915Z,2.25
2022-12-28T17:08:30.537Z,2.50
2022-12-28T17:10:57.118Z,2.20
2022-12-28T17:13:23.543Z,2.53
2022-12-28T17:15:50.365Z,2.35
2022-12-28T17:18:17.290Z,2.65
2022-12-28T17:20:44.987Z,2.88
2022-12-28T17:23:11.819Z,2.30
2022-12-28T17:25:38.179Z,2.25
2022-12-28T17:28:04.601Z,2.40
2022-12-28T17:30:31.813Z,2.30
2022-12-28T17:32:58.240Z,2.38
2022-12-28T17:35:24.695Z,2.75
2022-12-28T17:37:51.295Z,2.65
2022-12-28T17:40:17.878Z,2.72
2022-12-28T17:42:44.430Z,2.40
2022-12-28T17:45:12.131Z,2.58
2022-12-28T17:47:39.066Z,2.47
2022-12-28T17:50:06.366Z,2.63
2022-12-28T17:52:32.996Z,2.67
2022-12-28T17:54:59.536Z,2.50
2022-12-28T17:57:25.957Z,2.17
2022-12-28T17:59:52.484Z,2.20
2022-12-28T18:02:19.048Z,2.55
2022-12-28T18:04:45.521Z,2.50
2022-12-28T18:07:11.886Z,2.50
2022-12-28T18:09:38.424Z,2.78
2022-12-28T18:12:05.368Z,2.58
2022-12-28T18:14:31.876Z,2.55
2022-12-28T18:16:58.493Z,1.77
2022-12-28T18:19:25.222Z,2.33
2022-12-28T18:21:51.814Z,2.85
2022-12-28T18:24:20.857Z,2.22
2022-12-28T18:26:47.615Z,2.22
2022-12-28T18:29:14.191Z,2.05
2022-12-28T18:31:40.660Z,2.33
2022-12-28T18:34:07.456Z,2.15
2022-12-28T18:36:34.393Z,1.98
2022-12-28T18:39:02.320Z,2.03
2022-12-28T18:41:33.749Z,2.25
2022-12-28T18:44:02.962Z,2.22
2022-12-28T18:46:29.803Z,1.98
2022-12-28T18:48:56.642Z,1.88
2022-12-28T18:51:23.202Z,2.22
2022-12-28T18:53:50.782Z,2.03
2022-12-28T18:56:19.521Z,2.28
2022-12-28T19:02:04.779Z,2.17
2022-12-28T19:04:10.241Z,1.70
2022-12-28T19:06:37.441Z,2.42
2022-12-28T19:09:05.232Z,2.38
2022-12-28T19:11:31.830Z,2.20
2022-12-28T19:13:58.241Z,2.20
2022-12-28T19:16:31.141Z,2.30
2022-12-28T19:18:59.825Z,2.03
2022-12-28T19:21:35.107Z,2.43
2022-12-28T19:24:14.401Z,2.50
2022-12-28T19:26:41.054Z,2.33
2022-12-28T19:29:07.799Z,2.90
2022-12-28T19:31:34.714Z,2.60
2022-12-28T19:34:01.194Z,2.88
2022-12-28T19:36:28.667Z,2.15
2022-12-28T19:38:56.543Z,2.35
2022-12-28T19:41:23.732Z,2.38
2022-12-28T19:43:50.315Z,2.70
2022-12-28T19:46:19.641Z,2.40
2022-12-28T19:48:46.319Z,2.30
2022-12-28T19:51:14.046Z,2.40
2022-12-28T19:53:41.134Z,2.45
2022-12-28T19:56:13.005Z,2.65
2022-12-28T19:58:39.944Z,2.20
2022-12-28T20:01:10.031Z,2.65
2022-12-28T20:03:36.944Z,2.60
2022-12-28T20:06:08.843Z,2.50
2022-12-28T20:08:35.798Z,3.03
2022-12-28T20:11:04.436Z,2.50
2022-12-28T20:15:57.924Z,3.35
2022-12-28T20:18:24.510Z,2.67
2022-12-28T20:21:18.583Z,2.60
2022-12-28T20:23:38.142Z,2.38
2022-12-28T20:26:04.833Z,2.47
2022-12-28T20:28:31.815Z,3.08
2022-12-28T20:31:06.665Z,2.88
2022-12-28T20:33:36.964Z,2.92
2022-12-28T20:36:10.730Z,2.88
2022-12-28T20:38:39.611Z,2.85
2022-12-28T20:41:10.644Z,2.65
2022-12-28T20:43:37.045Z,2.35
2022-12-28T20:46:09.764Z,2.88
2022-12-28T20:48:36.147Z,3.08
2022-12-28T20:51:02.475Z,2.75
2022-12-28T20:53:28.888Z,3.67
2022-12-28T20:56:06.077Z,3.15
2022-12-28T20:58:32.508Z,2.58
2022-12-28T21:01:06.624Z,2.63
2022-12-28T21:03:34.044Z,2.63
2022-12-28T21:06:00.879Z,2.30
2022-12-28T21:08:30.870Z,2.38
2022-12-28T21:10:57.851Z,2.78
2022-12-28T21:13:24.674Z,2.70
2022-12-28T21:15:51.436Z,3.03
2022-12-28T21:18:19.077Z,2.38
2022-12-28T21:20:51.043Z,2.83
2022-12-28T21:23:18.061Z,2.70
2022-12-28T21:25:44.742Z,2.72
2022-12-28T21:28:11.671Z,2.45
2022-12-28T21:30:38.648Z,2.90
2022-12-28T21:33:05.461Z,2.30
2022-12-28T21:35:34.460Z,3.20
2022-12-28T21:38:02.225Z,2.97
2022-12-28T21:40:28.811Z,2.60
2022-12-28T21:42:55.284Z,2.65
2022-12-28T21:45:21.802Z,2.65
2022-12-28T21:47:48.332Z,2.70
2022-12-28T21:50:14.940Z,2.75
2022-12-28T21:52:41.357Z,3.30
2022-12-28T21:55:27.038Z,2.53
2022-12-28T21:57:54.139Z,2.95
2022-12-28T22:00:40.443Z,3.10
2022-12-28T22:03:25.582Z,2.70
2022-12-28T22:06:04.153Z,2.70
2022-12-28T22:08:50.347Z,2.88
2022-12-28T22:11:35.733Z,3.22
2022-12-28T22:14:02.871Z,3.00
2022-12-28T22:16:34.647Z,2.65
2022-12-28T22:19:03.570Z,3.50
2022-12-28T22:21:30.918Z,2.53
2022-12-28T22:23:57.496Z,2.25
2022-12-28T22:26:24.107Z,2.88
2022-12-28T22:28:50.554Z,2.92
2022-12-28T22:31:17.125Z,2.78
2022-12-28T22:33:43.605Z,2.90
2022-12-28T22:36:15.764Z,2.53
2022-12-28T22:38:42.355Z,2.88
2022-12-28T22:41:09.701Z,2.92
2022-12-28T22:43:36.108Z,2.80
2022-12-28T22:46:07.391Z,2.80
2022-12-28T22:48:34.256Z,2.85
2022-12-28T22:51:05.104Z,2.58
2022-12-28T22:53:32.557Z,2.67
2022-12-28T22:56:01.063Z,2.78
2022-12-28T22:58:28.396Z,2.90
2022-12-28T23:01:12.756Z,2.65
2022-12-28T23:03:43.884Z,2.50
2022-12-28T23:06:12.885Z,2.63
2022-12-28T23:08:39.440Z,2.70
2022-12-28T23:11:30.924Z,2.72
2022-12-28T23:14:18.388Z,2.60
2022-12-28T23:16:44.922Z,2.67
2022-12-28T23:19:30.608Z,2.50
2022-12-28T23:22:15.874Z,2.97
2022-12-28T23:25:01.013Z,2.65
2022-12-28T23:27:32.863Z,2.13
2022-12-28T23:29:59.248Z,2.70
2022-12-28T23:32:25.689Z,2.75
2022-12-28T23:34:52.091Z,2.58
2022-12-28T23:37:21.105Z,2.60
2022-12-28T23:39:47.736Z,2.40
2022-12-28T23:42:14.330Z,2.58
2022-12-28T23:44:40.827Z,2.45
2022-12-28T23:47:07.243Z,2.40
2022-12-28T23:49:33.607Z,2.22
2022-12-28T23:51:59.965Z,2.35
2022-12-28T23:54:26.823Z,2.38
2022-12-28T23:56:53.352Z,2.40
2022-12-28T23:59:19.893Z,2.97
